createdAt,value
2023-03-14T00:00:09.658Z,91723.63
2023-03-14T00:02:36.513Z,91717.94
2023-03-14T00:05:07.431Z,91719.38
2023-03-14T00:07:36.238Z,91717.94
2023-03-14T00:10:05.390Z,91716.81
2023-03-14T00:12:33.060Z,91710.06
2023-03-14T00:15:01.158Z,91713.22
2023-03-14T00:17:28.228Z,91707.88
2023-03-14T00:19:55.061Z,91705.50
2023-03-14T00:22:22.072Z,91710.78
2023-03-14T00:24:48.731Z,91712.88
2023-03-14T00:27:15.490Z,91699.13
2023-03-14T00:29:43.805Z,91701.03
2023-03-14T00:32:10.403Z,91700.78
2023-03-14T00:34:37.006Z,91693.06
2023-03-14T00:37:03.666Z,91698.75
2023-03-14T00:39:30.299Z,91696.75
2023-03-14T00:41:56.966Z,91685.69
2023-03-14T00:44:23.631Z,91671.47
2023-03-14T00:46:50.349Z,91668.78
2023-03-14T00:49:17.256Z,91658.34
2023-03-14T00:51:43.837Z,91651.06
2023-03-14T00:54:10.572Z,91650.34
2023-03-14T00:56:37.321Z,91636.25
2023-03-14T00:59:04.041Z,91642.50
2023-03-14T01:01:30.723Z,91638.16
2023-03-14T01:03:57.516Z,91636.59
2023-03-14T01:06:26.270Z,91636.19
2023-03-14T01:08:53.114Z,91626.13
2023-03-14T01:11:21.968Z,91632.06
2023-03-14T01:13:48.731Z,91622.00
2023-03-14T01:16:15.522Z,91620.63
2023-03-14T01:18:44.528Z,91625.16
2023-03-14T01:21:14.826Z,91610.06
2023-03-14T01:23:41.899Z,91611.00
2023-03-14T01:26:12.679Z,91612.22
2023-03-14T01:28:39.619Z,91606.66
2023-03-14T01:31:07.596Z,91611.56
2023-03-14T01:33:34.305Z,91613.34
2023-03-14T01:36:03.292Z,91616.13
2023-03-14T01:38:30.949Z,91616.34
2023-03-14T01:40:57.875Z,91603.50
2023-03-14T01:43:25.565Z,91600.59
2023-03-14T01:46:07.540Z,91604.53
2023-03-14T01:48:41.960Z,91603.72
2023-03-14T01:51:10.547Z,91601.72
2023-03-14T01:53:37.222Z,91611.22
2023-03-14T01:56:04.915Z,91596.03
2023-03-14T01:58:32.111Z,91595.91
2023-03-14T02:00:58.866Z,91593.00
2023-03-14T02:03:25.497Z,91592.28
2023-03-14T02:05:52.593Z,91595.69
2023-03-14T02:08:20.428Z,91599.34
2023-03-14T02:10:49.006Z,91594.19
2023-03-14T02:13:16.294Z,91590.28
2023-03-14T02:15:42.845Z,91586.63
2023-03-14T02:18:09.615Z,91589.88
2023-03-14T02:20:42.071Z,91590.75
2023-03-14T02:23:08.841Z,91591.75
2023-03-14T02:25:54.424Z,91585.28
2023-03-14T02:28:21.368Z,91587.34
2023-03-14T02:30:48.053Z,91589.72
2023-03-14T02:33:18.163Z,91595.28
2023-03-14T02:35:56.381Z,91589.66
2023-03-14T02:38:25.640Z,91592.44
2023-03-14T02:40:52.309Z,91590.75
2023-03-14T02:43:19.059Z,91576.78
2023-03-14T02:45:46.707Z,91571.31
2023-03-14T02:48:21.838Z,91566.41
2023-03-14T02:50:49.227Z,91561.34
2023-03-14T02:53:18.847Z,91560.91
2023-03-14T02:55:47.059Z,91566.34
2023-03-14T02:58:13.714Z,91554.09
2023-03-14T03:00:40.362Z,91561.25
2023-03-14T03:03:07.112Z,91561.69
2023-03-14T03:05:33.814Z,91566.06
2023-03-14T03:08:00.597Z,91565.06
2023-03-14T03:10:27.912Z,91564.16
2023-03-14T03:12:54.684Z,91559.03
2023-03-14T03:15:21.399Z,91557.28
2023-03-14T03:17:48.029Z,91557.66
2023-03-14T03:20:14.954Z,91560.69
2023-03-14T03:22:41.685Z,91557.44
2023-03-14T03:25:08.908Z,91568.78
2023-03-14T03:27:35.897Z,91567.53
2023-03-14T03:30:03.189Z,91570.91
2023-03-14T03:32:29.890Z,91568.00
2023-03-14T03:34:56.628Z,91569.16
2023-03-14T03:37:23.257Z,91570.25
2023-03-14T03:39:52.245Z,91569.25
2023-03-14T03:42:19.525Z,91578.09
2023-03-14T03:44:46.270Z,91576.22
2023-03-14T03:47:12.988Z,91569.28
2023-03-14T03:49:39.686Z,91565.72
2023-03-14T03:52:06.374Z,91565.53
2023-03-14T03:54:33.047Z,91564.69
2023-03-14T03:56:59.696Z,91562.00
2023-03-14T03:59:26.398Z,91556.28
2023-03-14T04:01:53.080Z,91570.81
2023-03-14T04:04:19.883Z,91571.47
2023-03-14T04:06:46.741Z,91573.50
2023-03-14T04:09:13.494Z,91571.59
2023-03-14T04:11:40.072Z,91573.28
2023-03-14T04:14:06.808Z,91577.38
2023-03-14T04:16:33.661Z,91564.75
2023-03-14T04:19:00.935Z,91569.06
2023-03-14T04:21:27.534Z,91562.69
2023-03-14T04:23:54.246Z,91566.81
2023-03-14T04:26:20.876Z,91557.13
2023-03-14T04:28:47.521Z,91562.56
2023-03-14T04:31:16.543Z,91557.56
2023-03-14T04:33:45.030Z,91552.88
2023-03-14T04:36:12.899Z,91556.72
2023-03-14T04:38:39.610Z,91552.72
2023-03-14T04:41:06.482Z,91553.44
2023-03-14T04:43:33.463Z,91553.09
2023-03-14T04:46:00.140Z,91548.28
2023-03-14T04:48:27.010Z,91554.06
2023-03-14T04:50:54.136Z,91552.06
2023-03-14T04:53:20.769Z,91546.34
2023-03-14T04:55:51.708Z,91548.28
2023-03-14T04:58:19.150Z,91542.47
2023-03-14T05:00:46.388Z,91534.44
2023-03-14T05:03:13.211Z,91545.59
2023-03-14T05:05:40.062Z,91540.03
2023-03-14T05:08:06.808Z,91533.75
2023-03-14T05:10:33.424Z,91528.81
2023-03-14T05:13:00.071Z,91527.16
2023-03-14T05:15:26.722Z,91530.28
2023-03-14T05:17:55.003Z,91528.47
2023-03-14T05:20:22.241Z,91518.50
2023-03-14T05:22:48.910Z,91521.31
2023-03-14T05:25:15.627Z,91526.56
2023-03-14T05:27:42.292Z,91519.63
2023-03-14T05:30:09.869Z,91517.38
2023-03-14T05:32:36.701Z,91525.25
2023-03-14T05:35:03.589Z,91518.31
2023-03-14T05:37:30.238Z,91523.78
2023-03-14T05:39:56.909Z,91516.97
2023-03-14T05:42:23.605Z,91519.22
2023-03-14T05:44:50.219Z,91510.53
2023-03-14T05:47:16.913Z,91516.88
2023-03-14T05:49:43.491Z,91511.66
2023-03-14T05:52:10.173Z,91515.94
2023-03-14T05:54:37.045Z,91506.38
2023-03-14T05:57:03.800Z,91501.25
2023-03-14T05:59:30.430Z,91497.09
2023-03-14T06:01:57.142Z,91496.75
2023-03-14T06:04:25.900Z,91493.03
2023-03-14T06:06:52.606Z,91507.81
2023-03-14T06:09:21.055Z,91497.06
2023-03-14T06:11:47.953Z,91505.94
2023-03-14T06:14:14.715Z,91506.75
2023-03-14T06:16:41.403Z,91497.91
2023-03-14T06:19:08.207Z,91493.31
2023-03-14T06:21:34.885Z,91496.53
2023-03-14T06:24:01.631Z,91495.41
2023-03-14T06:26:28.394Z,91497.41
2023-03-14T06:28:55.519Z,91493.22
2023-03-14T06:31:22.180Z,91492.22
2023-03-14T06:33:48.832Z,91489.25
2023-03-14T06:36:15.483Z,91484.00
2023-03-14T06:38:42.107Z,91479.66
2023-03-14T06:41:08.870Z,91483.78
2023-03-14T06:43:35.462Z,91478.16
2023-03-14T06:46:02.213Z,91477.50
2023-03-14T06:48:28.971Z,91477.19
2023-03-14T06:50:55.617Z,91491.25
2023-03-14T06:53:22.228Z,91491.34
2023-03-14T06:55:48.923Z,91486.91
2023-03-14T06:58:15.620Z,91491.97
2023-03-14T07:00:42.236Z,91491.94
2023-03-14T07:03:09.015Z,91488.41
2023-03-14T07:05:35.686Z,91486.91
2023-03-14T07:08:02.409Z,91486.50
2023-03-14T07:10:29.070Z,91477.41
2023-03-14T07:12:55.693Z,91470.44
2023-03-14T07:15:22.285Z,91472.81
2023-03-14T07:17:51.900Z,91469.78
2023-03-14T07:20:18.728Z,91468.47
2023-03-14T07:22:48.048Z,91463.56
2023-03-14T07:25:14.766Z,91463.25
2023-03-14T07:27:41.417Z,91456.25
2023-03-14T07:30:08.564Z,91457.53
2023-03-14T07:32:35.495Z,91445.56
2023-03-14T07:35:02.214Z,91449.97
2023-03-14T07:37:28.785Z,91443.28
2023-03-14T07:39:55.527Z,91445.22
2023-03-14T07:42:23.262Z,91445.16
2023-03-14T07:44:49.876Z,91438.44
2023-03-14T07:47:16.543Z,91440.94
2023-03-14T07:49:43.145Z,91432.16
2023-03-14T07:52:09.811Z,91429.19
2023-03-14T07:54:36.456Z,91428.47
2023-03-14T07:57:03.057Z,91434.03
2023-03-14T07:59:29.649Z,91418.63
2023-03-14T08:01:56.386Z,91419.13
2023-03-14T08:04:23.134Z,91413.34
2023-03-14T08:06:49.921Z,91406.63
2023-03-14T08:09:16.699Z,91407.72
2023-03-14T08:11:43.256Z,91405.81
2023-03-14T08:14:10.136Z,91394.38
2023-03-14T08:16:36.899Z,91398.88
2023-03-14T08:19:03.748Z,91398.47
2023-03-14T08:21:30.339Z,91400.09
2023-03-14T08:23:57.016Z,91391.09
2023-03-14T08:26:23.618Z,91391.56
2023-03-14T08:28:50.330Z,91395.00
2023-03-14T08:31:17.100Z,91396.91
2023-03-14T08:33:43.859Z,91393.22
2023-03-14T08:36:10.896Z,91393.22
2023-03-14T08:38:37.702Z,91400.81
2023-03-14T08:41:05.180Z,91397.78
2023-03-14T08:43:31.782Z,91391.81
2023-03-14T08:45:59.309Z,91396.91
2023-03-14T08:48:25.928Z,91383.31
2023-03-14T08:50:52.662Z,91382.78
2023-03-14T08:53:19.669Z,91385.63
2023-03-14T08:55:46.341Z,91387.88
2023-03-14T08:58:13.484Z,91370.44
2023-03-14T09:00:40.336Z,91376.19
2023-03-14T09:03:07.030Z,91375.91
2023-03-14T09:05:35.225Z,91375.78
2023-03-14T09:08:02.289Z,91365.75
2023-03-14T09:10:29.071Z,91366.06
2023-03-14T09:12:55.776Z,91366.66
2023-03-14T09:15:22.828Z,91366.34
2023-03-14T09:17:49.536Z,91361.22
2023-03-14T09:20:16.504Z,91359.84
2023-03-14T09:22:43.202Z,91351.22
2023-03-14T09:25:10.746Z,91348.25
2023-03-14T09:27:37.376Z,91340.09
2023-03-14T09:30:04.715Z,91337.16
2023-03-14T09:32:32.717Z,91332.81
2023-03-14T09:34:59.545Z,91330.78
2023-03-14T09:37:26.198Z,91320.88
2023-03-14T09:39:52.923Z,91323.31
2023-03-14T09:42:22.324Z,91312.63
2023-03-14T09:45:00.462Z,91306.06
2023-03-14T09:47:27.174Z,91298.16
2023-03-14T09:49:54.220Z,91295.50
2023-03-14T09:52:20.796Z,91299.38
2023-03-14T09:54:58.734Z,91300.88
2023-03-14T09:57:25.844Z,91286.53
2023-03-14T09:59:54.538Z,91284.94
2023-03-14T10:02:23.193Z,91273.41
2023-03-14T10:04:51.351Z,91276.69
2023-03-14T10:07:24.688Z,91263.56
2023-03-14T10:09:51.847Z,91249.28
2023-03-14T10:12:19.882Z,91247.03
2023-03-14T10:14:48.939Z,91248.97
2023-03-14T10:17:16.818Z,91246.38
2023-03-14T10:20:00.259Z,91240.13
2023-03-14T10:22:33.233Z,91233.56
2023-03-14T10:25:08.806Z,91229.13
2023-03-14T10:27:36.324Z,91228.88
2023-03-14T10:30:08.170Z,91219.25
2023-03-14T10:32:38.927Z,91217.69
2023-03-14T10:35:07.120Z,91213.94
2023-03-14T10:37:33.751Z,91215.16
2023-03-14T10:40:06.362Z,91209.25
2023-03-14T10:42:35.544Z,91209.13
2023-03-14T10:45:04.688Z,91199.16
2023-03-14T10:47:31.393Z,91200.06
2023-03-14T10:49:58.236Z,91197.97
2023-03-14T10:52:31.549Z,91186.63
2023-03-14T10:55:12.752Z,91183.28
2023-03-14T10:57:43.184Z,91176.38
2023-03-14T11:00:23.308Z,91166.75
2023-03-14T11:03:12.018Z,91159.31
2023-03-14T11:05:57.044Z,91155.88
2023-03-14T11:08:58.732Z,91149.72
2023-03-14T11:11:28.136Z,91148.50
2023-03-14T11:14:00.536Z,91142.81
2023-03-14T11:16:45.760Z,91146.63
2023-03-14T11:19:41.595Z,91134.38
2023-03-14T11:22:30.053Z,91130.38
2023-03-14T11:25:05.831Z,91124.66
2023-03-14T11:28:18.469Z,91118.66
2023-03-14T11:31:05.877Z,91112.31
2023-03-14T11:33:38.046Z,91105.72
2023-03-14T11:36:10.279Z,91100.66
2023-03-14T11:39:04.284Z,91098.13
2023-03-14T11:41:34.038Z,91091.59
2023-03-14T11:44:02.287Z,91080.69
2023-03-14T11:46:31.818Z,91086.31
2023-03-14T11:49:18.639Z,91077.72
2023-03-14T11:51:48.084Z,91068.78
2023-03-14T11:54:30.911Z,91061.72
2023-03-14T11:57:15.356Z,91058.59
2023-03-14T11:59:53.782Z,91058.84
2023-03-14T12:02:34.355Z,91062.38
2023-03-14T12:05:36.752Z,91048.53
2023-03-14T12:08:12.111Z,91048.88
2023-03-14T12:10:45.672Z,91042.03
2023-03-14T12:13:13.007Z,91035.25
2023-03-14T12:15:41.513Z,91038.03
2023-03-14T12:18:28.443Z,91031.19
2023-03-14T12:20:57.072Z,91022.13
2023-03-14T12:23:23.653Z,91022.00
2023-03-14T12:25:50.529Z,91025.78
2023-03-14T12:28:21.994Z,91020.75
2023-03-14T12:30:48.630Z,91013.56
2023-03-14T12:33:17.869Z,91009.19
2023-03-14T12:35:45.773Z,91011.72
2023-03-14T12:38:12.308Z,91011.28
2023-03-14T12:40:49.997Z,91003.13
2023-03-14T12:43:35.223Z,91000.63
2023-03-14T12:46:20.907Z,91008.22
2023-03-14T12:48:50.125Z,90996.06
2023-03-14T12:51:37.293Z,91003.34
2023-03-14T12:54:26.246Z,91001.81
2023-03-14T12:56:52.880Z,90999.72
2023-03-14T12:59:48.536Z,90999.66
2023-03-14T13:02:52.911Z,90998.31
2023-03-14T13:05:25.978Z,90984.94
2023-03-14T13:07:55.889Z,90991.09
2023-03-14T13:10:29.159Z,90988.44
2023-03-14T13:13:10.165Z,90982.88
2023-03-14T13:15:40.349Z,90981.06
2023-03-14T13:18:23.830Z,90975.75
2023-03-14T13:20:55.236Z,90977.47
2023-03-14T13:23:32.362Z,90974.22
2023-03-14T13:26:00.356Z,90962.84
2023-03-14T13:28:27.636Z,90953.00
2023-03-14T13:31:02.231Z,90949.09
2023-03-14T13:33:28.892Z,90943.94
2023-03-14T13:35:57.656Z,90943.19
2023-03-14T13:38:28.845Z,90947.13
2023-03-14T13:41:00.601Z,90933.06
2023-03-14T13:43:32.198Z,90938.50
2023-03-14T13:46:15.137Z,90923.72
2023-03-14T13:48:48.643Z,90927.25
2023-03-14T13:51:16.828Z,90920.88
2023-03-14T13:53:47.889Z,90917.41
2023-03-14T13:56:14.561Z,90911.94
2023-03-14T13:58:41.845Z,90915.34
2023-03-14T14:01:11.219Z,90906.22
2023-03-14T14:03:41.998Z,90897.31
2023-03-14T14:06:20.947Z,90901.56
2023-03-14T14:08:47.679Z,90887.25
2023-03-14T14:11:30.177Z,90896.09
2023-03-14T14:14:02.134Z,90896.72
2023-03-14T14:16:28.771Z,90893.44
2023-03-14T14:18:55.470Z,90889.22
2023-03-14T14:21:22.042Z,90882.66
2023-03-14T14:23:48.753Z,90879.28
2023-03-14T14:26:17.739Z,90875.81
2023-03-14T14:28:44.423Z,90885.28
2023-03-14T14:31:24.055Z,90876.59
2023-03-14T14:34:01.518Z,90869.69
2023-03-14T14:36:42.086Z,90868.06
2023-03-14T14:39:19.229Z,90862.13
2023-03-14T14:41:45.785Z,90860.25
2023-03-14T14:44:13.032Z,90853.50
2023-03-14T14:46:39.765Z,90858.84
2023-03-14T14:49:18.776Z,90854.84
2023-03-14T14:51:49.800Z,90850.34
2023-03-14T14:54:21.129Z,90846.16
2023-03-14T14:56:50.117Z,90838.25
2023-03-14T14:59:25.630Z,90838.72
2023-03-14T15:01:59.581Z,90842.63
2023-03-14T15:04:26.737Z,90846.84
2023-03-14T15:06:53.686Z,90844.69
2023-03-14T15:09:20.980Z,90838.09
2023-03-14T15:11:48.493Z,90844.09
2023-03-14T15:14:15.158Z,90846.59
2023-03-14T15:16:41.998Z,90842.25
2023-03-14T15:19:24.731Z,90843.28
2023-03-14T15:21:53.341Z,90838.28
2023-03-14T15:24:20.126Z,90837.50
2023-03-14T15:26:46.847Z,90832.16
2023-03-14T15:29:13.837Z,90829.28
2023-03-14T15:31:41.103Z,90831.25
2023-03-14T15:34:07.879Z,90826.00
2023-03-14T15:36:35.093Z,90825.78
2023-03-14T15:39:01.738Z,90821.91
2023-03-14T15:41:28.546Z,90819.25
2023-03-14T15:43:55.468Z,90817.69
2023-03-14T15:46:22.908Z,90824.78
2023-03-14T15:48:50.561Z,90824.28
2023-03-14T15:51:17.313Z,90828.28
2023-03-14T15:53:47.145Z,90823.78
2023-03-14T15:56:25.916Z,90824.91
2023-03-14T15:58:52.891Z,90824.66
2023-03-14T16:01:19.764Z,90818.72
2023-03-14T16:03:46.847Z,90813.47
2023-03-14T16:06:14.108Z,90816.78
2023-03-14T16:08:40.770Z,90821.25
2023-03-14T16:11:07.559Z,90817.44
2023-03-14T16:13:34.222Z,90819.75
2023-03-14T16:16:02.260Z,90818.94
2023-03-14T16:18:30.432Z,90821.09
2023-03-14T16:20:58.504Z,90823.00
2023-03-14T16:23:25.589Z,90819.47
2023-03-14T16:25:52.712Z,90820.81
2023-03-14T16:28:19.442Z,90821.00
2023-03-14T16:30:47.681Z,90818.53
2023-03-14T16:33:15.473Z,90820.63
2023-03-14T16:35:42.596Z,90819.84
2023-03-14T16:38:09.279Z,90811.84
2023-03-14T16:40:35.982Z,90818.81
2023-03-14T16:43:15.609Z,90815.91
2023-03-14T16:45:50.980Z,90810.72
2023-03-14T16:48:17.751Z,90805.94
2023-03-14T16:50:44.471Z,90805.72
2023-03-14T16:53:11.862Z,90809.84
2023-03-14T16:55:42.709Z,90805.78
2023-03-14T16:58:09.666Z,90811.34
2023-03-14T17:00:36.422Z,90806.44
2023-03-14T17:03:03.550Z,90802.75
2023-03-14T17:05:30.169Z,90806.00
2023-03-14T17:07:56.880Z,90805.47
2023-03-14T17:10:23.883Z,90802.06
2023-03-14T17:12:50.570Z,90816.06
2023-03-14T17:15:17.280Z,90815.16
2023-03-14T17:17:44.012Z,90805.06
2023-03-14T17:20:11.684Z,90814.31
2023-03-14T17:22:38.385Z,90811.78
2023-03-14T17:25:05.391Z,90807.75
2023-03-14T17:27:32.066Z,90807.03
2023-03-14T17:29:58.770Z,90815.47
2023-03-14T17:32:26.330Z,90812.41
2023-03-14T17:34:54.591Z,90801.38
2023-03-14T17:37:21.319Z,90821.72
2023-03-14T17:39:48.029Z,90818.81
2023-03-14T17:42:14.715Z,90825.91
2023-03-14T17:44:41.956Z,90829.53
2023-03-14T17:47:08.740Z,90825.09
2023-03-14T17:49:35.493Z,90826.41
2023-03-14T17:52:02.191Z,90821.91
2023-03-14T17:54:28.838Z,90826.44
2023-03-14T17:56:57.242Z,90829.47
2023-03-14T17:59:24.633Z,90829.59
2023-03-14T18:01:53.037Z,90824.94
2023-03-14T18:04:21.196Z,90833.31
2023-03-14T18:06:47.924Z,90827.81
2023-03-14T18:09:14.593Z,90831.09
2023-03-14T18:11:41.185Z,90825.28
2023-03-14T18:14:08.144Z,90821.97
2023-03-14T18:16:35.331Z,90815.94
2023-03-14T18:19:02.177Z,90823.81
2023-03-14T18:21:30.198Z,90817.53
2023-03-14T18:23:56.943Z,90832.88
2023-03-14T18:26:25.547Z,90825.94
2023-03-14T18:28:52.229Z,90824.72
2023-03-14T18:31:22.468Z,90824.28
2023-03-14T18:33:49.561Z,90817.69
2023-03-14T18:36:16.381Z,90807.38
2023-03-14T18:38:43.667Z,90809.84
2023-03-14T18:41:11.583Z,90801.94
2023-03-14T18:43:38.287Z,90807.75
2023-03-14T18:46:05.073Z,90805.63
2023-03-14T18:48:31.855Z,90801.19
2023-03-14T18:50:59.242Z,90808.72
2023-03-14T18:53:32.308Z,90809.97
2023-03-14T18:56:02.426Z,90810.41
2023-03-14T18:58:29.175Z,90805.44
2023-03-14T19:00:57.838Z,90808.53
2023-03-14T19:03:27.269Z,90807.66
2023-03-14T19:05:54.768Z,90800.13
2023-03-14T19:08:23.754Z,90803.78
2023-03-14T19:10:51.287Z,90802.81
2023-03-14T19:13:17.996Z,90794.22
2023-03-14T19:15:44.728Z,90790.91
2023-03-14T19:18:11.442Z,90794.84
2023-03-14T19:20:38.932Z,90797.50
2023-03-14T19:23:05.581Z,90795.03
2023-03-14T19:25:32.498Z,90799.38
2023-03-14T19:27:59.149Z,90793.06
2023-03-14T19:30:26.870Z,90802.13
2023-03-14T19:32:53.640Z,90797.00
2023-03-14T19:35:20.343Z,90797.13
2023-03-14T19:37:47.017Z,90789.41
2023-03-14T19:40:14.048Z,90804.94
2023-03-14T19:42:40.724Z,90800.06
2023-03-14T19:45:08.090Z,90795.75
2023-03-14T19:47:34.664Z,90796.41
2023-03-14T19:50:01.443Z,90790.97
2023-03-14T19:52:28.218Z,90793.41
2023-03-14T19:54:54.930Z,90786.44
2023-03-14T19:57:21.553Z,90787.50
2023-03-14T19:59:48.213Z,90787.31
2023-03-14T20:02:15.749Z,90791.59
2023-03-14T20:04:46.700Z,90786.91
2023-03-14T20:07:13.947Z,90783.47
2023-03-14T20:09:40.851Z,90787.31
2023-03-14T20:12:08.458Z,90772.84
2023-03-14T20:14:35.354Z,90782.66
2023-03-14T20:17:02.168Z,90784.94
2023-03-14T20:19:28.895Z,90776.94
2023-03-14T20:21:55.519Z,90777.50
2023-03-14T20:24:22.269Z,90775.00
2023-03-14T20:26:49.274Z,90779.81
2023-03-14T20:29:15.990Z,90775.81
2023-03-14T20:31:42.830Z,90767.34
2023-03-14T20:34:09.674Z,90762.94
2023-03-14T20:36:38.005Z,90771.66
2023-03-14T20:39:05.419Z,90764.03
2023-03-14T20:41:32.263Z,90758.41
2023-03-14T20:43:59.051Z,90756.88
2023-03-14T20:46:25.745Z,90754.63
2023-03-14T20:48:52.829Z,90749.72
2023-03-14T20:51:19.511Z,90741.94
2023-03-14T20:53:46.235Z,90747.25
2023-03-14T20:56:12.922Z,90747.38
2023-03-14T20:58:39.676Z,90737.56
2023-03-14T21:01:06.566Z,90731.56
2023-03-14T21:03:33.231Z,90727.72
2023-03-14T21:05:59.893Z,90726.28
2023-03-14T21:08:26.660Z,90724.84
2023-03-14T21:10:54.714Z,90722.13
2023-03-14T21:13:21.370Z,90716.91
2023-03-14T21:15:48.096Z,90713.06
2023-03-14T21:18:15.633Z,90707.75
2023-03-14T21:20:42.619Z,90710.72
2023-03-14T21:23:09.451Z,90703.22
2023-03-14T21:25:36.190Z,90711.63
2023-03-14T21:28:04.255Z,90714.03
2023-03-14T21:30:34.426Z,90711.16
2023-03-14T21:33:01.406Z,90700.56
2023-03-14T21:35:28.048Z,90690.47
2023-03-14T21:37:54.844Z,90696.19
2023-03-14T21:40:22.436Z,90699.81
2023-03-14T21:42:49.152Z,90701.66
2023-03-14T21:45:16.789Z,90701.75
2023-03-14T21:47:47.414Z,90709.78
2023-03-14T21:50:17.630Z,90697.31
2023-03-14T21:52:46.387Z,90693.31
2023-03-14T21:55:17.644Z,90691.25
2023-03-14T21:57:48.013Z,90700.38
2023-03-14T22:00:20.323Z,90698.69
2023-03-14T22:02:58.297Z,90700.59
2023-03-14T22:05:34.847Z,90693.75
2023-03-14T22:08:01.450Z,90681.84
2023-03-14T22:10:28.234Z,90676.63
2023-03-14T22:12:56.106Z,90678.88
2023-03-14T22:15:22.683Z,90678.03
2023-03-14T22:17:49.395Z,90670.94
2023-03-14T22:20:16.077Z,90673.50
2023-03-14T22:22:42.712Z,90677.06
2023-03-14T22:25:09.585Z,90675.16
2023-03-14T22:27:36.174Z,90671.09
2023-03-14T22:30:03.402Z,90671.91
2023-03-14T22:32:30.726Z,90673.28
2023-03-14T22:34:57.457Z,90655.28
2023-03-14T22:37:25.525Z,90648.38
2023-03-14T22:39:52.222Z,90656.38
2023-03-14T22:42:19.007Z,90651.53
2023-03-14T22:44:45.689Z,90653.34
2023-03-14T22:47:12.377Z,90642.94
2023-03-14T22:49:39.089Z,90648.78
2023-03-14T22:52:05.849Z,90657.75
2023-03-14T22:54:32.566Z,90648.59
2023-03-14T22:56:59.219Z,90643.13
2023-03-14T22:59:25.864Z,90646.44
2023-03-14T23:01:52.569Z,90649.66
2023-03-14T23:04:19.345Z,90643.78
2023-03-14T23:06:45.965Z,90635.94
2023-03-14T23:09:12.711Z,90644.47
2023-03-14T23:11:39.806Z,90645.75
2023-03-14T23:14:06.404Z,90641.13
2023-03-14T23:16:39.935Z,90640.44
2023-03-14T23:19:07.003Z,90638.78
2023-03-14T23:21:33.682Z,90631.63
2023-03-14T23:24:05.741Z,90630.25
2023-03-14T23:26:35.838Z,90622.00
2023-03-14T23:29:05.477Z,90619.34
2023-03-14T23:31:32.838Z,90634.41
2023-03-14T23:33:59.583Z,90635.34
2023-03-14T23:36:26.278Z,90633.81
2023-03-14T23:38:53.043Z,90633.56
2023-03-14T23:41:19.668Z,90624.53
2023-03-14T23:43:46.657Z,90623.03
2023-03-14T23:46:13.933Z,90623.59
2023-03-14T23:48:40.699Z,90622.25
2023-03-14T23:51:09.007Z,90619.84
2023-03-14T23:53:35.673Z,90622.25
2023-03-14T23:56:02.624Z,90617.19
2023-03-14T23:58:30.149Z,90609.88
